Time;durP1;ratioP1;P1;durP2;ratioP2;P2;SDS_P1;SDS_P2;PMS_P1;PMS_P2;Temp;Humidity;BMP_temperature;BMP_pressure;BME280_temperature;BME280_humidity;BME280_pressure;Samples;Min_cycle;Max_cycle;Signal;HPM_P1;HPM_P2
2023/06/18 00:01:52;;;;;;;;;;;;;;;;;;5112946;28;1210;-65
2023/06/18 00:04:18;;;;;;;;;;;;;;;;;;5114445;28;836;-65
2023/06/18 00:06:43;;;;;;;;;;;;;;;;;;5114223;28;1969;-65
2023/06/18 00:09:08;;;;;;;;;;;;;;;;;;5113407;28;829;-65
2023/06/18 00:11:34;;;;;;;;;;;;;;;;;;5115617;28;928;-65
2023/06/18 00:13:59;;;;;;;;;;;;;;;;;;5114240;28;904;-65
2023/06/18 00:16:24;;;;;;;;;;;;;;;;;;5114364;28;948;-65
2023/06/18 00:18:50;;;;;;;;;;;;;;;;;;5114108;28;897;-66
2023/06/18 00:21:15;;;;;;;;;;;;;;;;;;5113776;28;1373;-65
2023/06/18 00:23:40;;;;;;;;;;;;;;;;;;5114199;28;901;-66
2023/06/18 00:26:06;;;;;;;;;;;;;;;;;;5112312;28;1898;-66
2023/06/18 00:28:31;;;;;;;;;;;;;;;;;;5114154;28;884;-65
2023/06/18 00:30:56;;;;;;;;;;;;;;;;;;5113007;28;857;-66
2023/06/18 00:33:22;;;;;;;;;;;;;;;;;;5113663;28;845;-66
2023/06/18 00:35:48;;;;;;;;;;;;;;;;;;5113200;28;923;-65
2023/06/18 00:38:16;;;;;;;;;;;;;;;;;;5112560;28;952;-65
2023/06/18 00:40:42;;;;;;;;;;;;;;;;;;5112895;28;852;-65
2023/06/18 00:43:07;;;;;;;;;;;;;;;;;;5112906;28;928;-65
2023/06/18 00:45:34;;;;;;;;;;;;;;;;;;5113164;28;1031;-65
2023/06/18 00:48:00;;;;;;;;;;;;;;;;;;5112823;28;1897;-65
2023/06/18 00:50:26;;;;;;;;;;;;;;;;;;5112914;28;1115;-65
2023/06/18 00:52:59;;;;;;;;;;;;;;;;;;5113467;28;841;-65
2023/06/18 00:55:26;;;;;;;;;;;;;;;;;;5113174;28;1009;-65
2023/06/18 00:57:59;;;;;;;;;;;;;;;;;;5112307;28;1168;-65
2023/06/18 01:00:25;;;;;;;;;;;;;;;;;;5113028;28;923;-65
2023/06/18 01:02:53;;;;;;;;;;;;;;;;;;5112597;28;1002;-65
2023/06/18 01:05:20;;;;;;;;;;;;;;;;;;5112552;28;928;-65
2023/06/18 01:07:47;;;;;;;;;;;;;;;;;;5112463;28;1905;-65
2023/06/18 01:10:14;;;;;;;;;;;;;;;;;;5112071;28;873;-65
2023/06/18 01:12:39;;;;;;;;;;;;;;;;;;5113385;28;873;-65
2023/06/18 01:15:05;;;;;;;;;;;;;;;;;;5111375;28;1372;-65
2023/06/18 01:17:34;;;;;;;;;;;;;;;;;;5112567;28;892;-65
2023/06/18 01:20:12;;;;;;;;;;;;;;;;;;5115288;28;705;-65
2023/06/18 01:22:40;;;;;;;;;;;;;;;;;;5115484;28;1265;-65
2023/06/18 01:25:06;;;;;;;;;;;;;;;;;;5115914;28;893;-65
2023/06/18 01:27:33;;;;;;;;;;;;;;;;;;5116671;28;1906;-65
2023/06/18 01:29:59;;;;;;;;;;;;;;;;;;5116295;27;899;-65
2023/06/18 01:32:25;;;;;;;;;;;;;;;;;;5117312;28;952;-65
2023/06/18 01:34:53;;;;;;;;;;;;;;;;;;5115856;28;920;-65
2023/06/18 01:37:38;;;;;;;;;;;;;;;;;;5117003;28;881;-65
2023/06/18 01:40:22;;;;;;;;;;;;;;;;;;5115817;28;991;-65
2023/06/18 01:42:59;;;;;;;;;;;;;;;;;;5117337;28;995;-65
2023/06/18 01:45:46;;;;;;;;;;;;;;;;;;5117592;28;988;-65
2023/06/18 01:48:13;;;;;;;;;;;;;;;;;;5116816;28;1905;-65
2023/06/18 01:50:42;;;;;;;;;;;;;;;;;;5117617;28;868;-65
2023/06/18 01:53:11;;;;;;;;;;;;;;;;;;5117402;28;987;-65
2023/06/18 01:55:37;;;;;;;;;;;;;;;;;;5115745;28;976;-66
2023/06/18 01:58:03;;;;;;;;;;;;;;;;;;5116924;28;1170;-65
2023/06/18 02:00:28;;;;;;;;;;;;;;;;;;5117567;27;956;-65
2023/06/18 02:02:54;;;;;;;;;;;;;;;;;;5116806;28;829;-65
2023/06/18 02:05:19;;;;;;;;;;;;;;;;;;5117010;28;923;-65
2023/06/18 02:07:45;;;;;;;;;;;;;;;;;;5116712;28;1914;-65
2023/06/18 02:10:10;;;;;;;;;;;;;;;;;;5116930;28;845;-66
2023/06/18 02:12:35;;;;;;;;;;;;;;;;;;5116748;28;901;-65
2023/06/18 02:15:00;;;;;;;;;;;;;;;;;;5116655;28;679;-66
2023/06/18 02:17:26;;;;;;;;;;;;;;;;;;5115810;28;853;-66
2023/06/18 02:19:51;;;;;;;;;;;;;;;;;;5116366;28;925;-66
2023/06/18 02:22:17;;;;;;;;;;;;;;;;;;5115402;28;1186;-65
2023/06/18 02:24:42;;;;;;;;;;;;;;;;;;5115619;28;1168;-65
2023/06/18 02:27:08;;;;;;;;;;;;;;;;;;5114528;28;1928;-66
2023/06/18 02:29:33;;;;;;;;;;;;;;;;;;5097010;28;1207;-65
2023/06/18 02:31:58;;;;;;;;;;;;;;;;;;5095775;28;912;-65
2023/06/18 02:34:27;;;;;;;;;;;;;;;;;;5096152;28;912;-65
2023/06/18 02:36:52;;;;;;;;;;;;;;;;;;5095246;28;838;-65
2023/06/18 02:39:17;;;;;;;;;;;;;;;;;;5095704;28;861;-65
2023/06/18 02:41:43;;;;;;;;;;;;;;;;;;5096023;28;802;-65
2023/06/18 02:44:09;;;;;;;;;;;;;;;;;;5094901;28;964;-66
2023/06/18 02:46:34;;;;;;;;;;;;;;;;;;5095647;28;1974;-66
2023/06/18 02:48:59;;;;;;;;;;;;;;;;;;5095258;28;917;-65
2023/06/18 02:51:25;;;;;;;;;;;;;;;;;;5095128;28;864;-65
2023/06/18 02:53:50;;;;;;;;;;;;;;;;;;5095908;28;1469;-65
2023/06/18 02:56:17;;;;;;;;;;;;;;;;;;5095580;28;930;-66
2023/06/18 02:58:42;;;;;;;;;;;;;;;;;;5095542;28;1233;-65
2023/06/18 03:01:07;;;;;;;;;;;;;;;;;;5095357;28;999;-65
2023/06/18 03:03:33;;;;;;;;;;;;;;;;;;5095779;28;924;-65
2023/06/18 03:05:58;;;;;;;;;;;;;;;;;;5095645;28;1003;-66
2023/06/18 03:08:23;;;;;;;;;;;;;;;;;;5095206;28;1906;-65
2023/06/18 03:10:49;;;;;;;;;;;;;;;;;;5102255;28;1261;-66
2023/06/18 03:13:14;;;;;;;;;;;;;;;;;;5112094;28;1187;-66
2023/06/18 03:15:39;;;;;;;;;;;;;;;;;;5114052;28;1147;-65
2023/06/18 03:18:05;;;;;;;;;;;;;;;;;;5115574;28;1183;-66
2023/06/18 03:20:31;;;;;;;;;;;;;;;;;;5114991;27;849;-65
2023/06/18 03:22:57;;;;;;;;;;;;;;;;;;5115440;28;1196;-65
2023/06/18 03:25:22;;;;;;;;;;;;;;;;;;5115414;28;794;-66
2023/06/18 03:27:48;;;;;;;;;;;;;;;;;;5114779;28;1905;-65
2023/06/18 03:30:13;;;;;;;;;;;;;;;;;;5114567;28;1082;-65
2023/06/18 03:32:39;;;;;;;;;;;;;;;;;;5114534;28;1015;-65
2023/06/18 03:35:04;;;;;;;;;;;;;;;;;;5114588;28;928;-65
2023/06/18 03:37:30;;;;;;;;;;;;;;;;;;5114726;28;850;-65
2023/06/18 03:39:56;;;;;;;;;;;;;;;;;;5114613;28;851;-65
2023/06/18 03:42:21;;;;;;;;;;;;;;;;;;5114342;28;916;-65
2023/06/18 03:44:46;;;;;;;;;;;;;;;;;;5114858;28;995;-66
2023/06/18 03:47:12;;;;;;;;;;;;;;;;;;5114395;28;1906;-65
2023/06/18 03:49:37;;;;;;;;;;;;;;;;;;5114327;28;908;-66
2023/06/18 03:52:03;;;;;;;;;;;;;;;;;;5114769;28;1000;-65
2023/06/18 03:54:28;;;;;;;;;;;;;;;;;;5114655;28;999;-65
2023/06/18 03:56:53;;;;;;;;;;;;;;;;;;5115113;28;728;-65
2023/06/18 03:59:18;;;;;;;;;;;;;;;;;;5114052;28;1119;-65
2023/06/18 04:01:44;;;;;;;;;;;;;;;;;;5114638;28;1377;-65
2023/06/18 04:04:09;;;;;;;;;;;;;;;;;;5114058;28;932;-65
2023/06/18 04:06:34;;;;;;;;;;;;;;;;;;5114123;28;2318;-66
2023/06/18 04:08:59;;;;;;;;;;;;;;;;;;5114467;28;932;-65
2023/06/18 04:11:26;;;;;;;;;;;;;;;;;;5114372;28;928;-66
2023/06/18 04:13:52;;;;;;;;;;;;;;;;;;5112947;28;857;-65
2023/06/18 04:16:17;;;;;;;;;;;;;;;;;;5114287;28;822;-65
2023/06/18 04:18:42;;;;;;;;;;;;;;;;;;5114450;28;912;-65
2023/06/18 04:21:07;;;;;;;;;;;;;;;;;;5114153;28;1043;-65
2023/06/18 04:23:33;;;;;;;;;;;;;;;;;;5113764;28;829;-66
2023/06/18 04:25:58;;;;;;;;;;;;;;;;;;5114156;28;817;-66
2023/06/18 04:28:23;;;;;;;;;;;;;;;;;;5113802;28;1898;-66
2023/06/18 04:30:48;;;;;;;;;;;;;;;;;;5114214;28;833;-65
2023/06/18 04:33:14;;;;;;;;;;;;;;;;;;5113357;28;836;-65
2023/06/18 04:35:39;;;;;;;;;;;;;;;;;;5113714;28;874;-65
2023/06/18 04:38:06;;;;;;;;;;;;;;;;;;5113960;28;868;-65
2023/06/18 04:40:31;;;;;;;;;;;;;;;;;;5112034;28;1230;-65
2023/06/18 04:42:57;;;;;;;;;;;;;;;;;;5111883;28;1151;-65
2023/06/18 04:45:22;;;;;;;;;;;;;;;;;;5112120;28;1175;-65
2023/06/18 04:47:48;;;;;;;;;;;;;;;;;;5110807;28;1953;-65
2023/06/18 04:50:13;;;;;;;;;;;;;;;;;;5110854;28;1163;-65
2023/06/18 04:52:38;;;;;;;;;;;;;;;;;;5110571;28;1148;-65
2023/06/18 04:55:05;;;;;;;;;;;;;;;;;;5112589;28;1234;-66
2023/06/18 04:57:30;;;;;;;;;;;;;;;;;;5113015;28;1023;-66
2023/06/18 04:59:55;;;;;;;;;;;;;;;;;;5113185;28;1135;-65
2023/06/18 05:02:20;;;;;;;;;;;;;;;;;;5113391;28;933;-65
2023/06/18 05:04:46;;;;;;;;;;;;;;;;;;5112758;28;896;-65
2023/06/18 05:07:11;;;;;;;;;;;;;;;;;;5113254;28;1913;-65
2023/06/18 05:09:36;;;;;;;;;;;;;;;;;;5113069;28;1090;-65
2023/06/18 05:12:02;;;;;;;;;;;;;;;;;;5113450;28;880;-65
2023/06/18 05:14:27;;;;;;;;;;;;;;;;;;5112910;28;928;-65
2023/06/18 05:16:53;;;;;;;;;;;;;;;;;;5113350;28;900;-65
2023/06/18 05:19:18;;;;;;;;;;;;;;;;;;5113069;28;822;-66
2023/06/18 05:21:43;;;;;;;;;;;;;;;;;;5094429;28;1381;-66
2023/06/18 05:24:09;;;;;;;;;;;;;;;;;;5112862;28;897;-65
2023/06/18 05:26:34;;;;;;;;;;;;;;;;;;5112797;28;1961;-65
2023/06/18 05:29:00;;;;;;;;;;;;;;;;;;5113319;28;1019;-65
2023/06/18 05:31:26;;;;;;;;;;;;;;;;;;5112865;28;892;-65
2023/06/18 05:33:51;;;;;;;;;;;;;;;;;;5113612;28;844;-66
2023/06/18 05:36:16;;;;;;;;;;;;;;;;;;5113308;28;880;-65
2023/06/18 05:38:42;;;;;;;;;;;;;;;;;;5113530;28;1014;-65
2023/06/18 05:41:07;;;;;;;;;;;;;;;;;;5113055;28;1000;-66
2023/06/18 05:43:32;;;;;;;;;;;;;;;;;;5111315;28;916;-64
2023/06/18 05:45:57;;;;;;;;;;;;;;;;;;5113422;28;990;-66
2023/06/18 05:48:23;;;;;;;;;;;;;;;;;;5112057;28;1905;-66
2023/06/18 05:50:48;;;;;;;;;;;;;;;;;;5113082;28;888;-66
2023/06/18 05:53:13;;;;;;;;;;;;;;;;;;5113519;28;908;-66
2023/06/18 05:55:38;;;;;;;;;;;;;;;;;;5113400;28;983;-66
2023/06/18 05:58:04;;;;;;;;;;;;;;;;;;5113359;28;1053;-66
2023/06/18 06:00:30;;;;;;;;;;;;;;;;;;5113512;28;833;-66
2023/06/18 06:02:55;;;;;;;;;;;;;;;;;;5113500;28;973;-66
2023/06/18 06:05:21;;;;;;;;;;;;;;;;;;5112158;28;995;-66
2023/06/18 06:07:46;;;;;;;;;;;;;;;;;;5117009;28;1941;-66
2023/06/18 06:10:13;;;;;;;;;;;;;;;;;;5115268;28;872;-66
2023/06/18 06:12:39;;;;;;;;;;;;;;;;;;5116355;28;1124;-66
2023/06/18 06:15:04;;;;;;;;;;;;;;;;;;5117801;28;1148;-66
2023/06/18 06:17:30;;;;;;;;;;;;;;;;;;5117640;28;913;-66
2023/06/18 06:19:55;;;;;;;;;;;;;;;;;;5117604;28;921;-66
2023/06/18 06:22:20;;;;;;;;;;;;;;;;;;5116719;28;698;-66
2023/06/18 06:24:46;;;;;;;;;;;;;;;;;;5115319;28;996;-66
2023/06/18 06:27:11;;;;;;;;;;;;;;;;;;5115676;28;1898;-66
2023/06/18 06:29:36;;;;;;;;;;;;;;;;;;5116033;28;1090;-66
2023/06/18 06:32:02;;;;;;;;;;;;;;;;;;5115992;28;841;-66
2023/06/18 06:34:27;;;;;;;;;;;;;;;;;;5115102;28;777;-66
2023/06/18 06:36:52;;;;;;;;;;;;;;;;;;5116147;28;912;-66
2023/06/18 06:39:18;;;;;;;;;;;;;;;;;;5115052;28;919;-66
2023/06/18 06:41:44;;;;;;;;;;;;;;;;;;5114867;28;885;-66
2023/06/18 06:44:09;;;;;;;;;;;;;;;;;;5116422;28;845;-66
2023/06/18 06:46:34;;;;;;;;;;;;;;;;;;5115334;28;1956;-66
2023/06/18 06:49:00;;;;;;;;;;;;;;;;;;5115528;28;841;-65
2023/06/18 06:51:25;;;;;;;;;;;;;;;;;;5115938;28;920;-64
2023/06/18 06:53:50;;;;;;;;;;;;;;;;;;5115729;28;888;-64
2023/06/18 06:56:16;;;;;;;;;;;;;;;;;;5115338;28;909;-65
2023/06/18 06:58:41;;;;;;;;;;;;;;;;;;5114829;28;1802;-65
2023/06/18 07:01:06;;;;;;;;;;;;;;;;;;5114834;28;1166;-65
2023/06/18 07:03:32;;;;;;;;;;;;;;;;;;5111856;28;1043;-65
2023/06/18 07:05:57;;;;;;;;;;;;;;;;;;5113253;28;963;-65
2023/06/18 07:08:22;;;;;;;;;;;;;;;;;;5114216;28;1965;-65
2023/06/18 07:10:47;;;;;;;;;;;;;;;;;;5114896;28;940;-65
2023/06/18 07:13:13;;;;;;;;;;;;;;;;;;5115383;28;857;-65
2023/06/18 07:18:44;;;;;;;;;;;;;;;;;;5099236;28;1416;-68
2023/06/18 07:21:13;;;;;;;;;;;;;;;;;;5086144;28;1332;-65
2023/06/18 07:23:39;;;;;;;;;;;;;;;;;;5094269;28;1374;-67
2023/06/18 07:26:04;;;;;;;;;;;;;;;;;;5092983;28;899;-64
2023/06/18 07:28:30;;;;;;;;;;;;;;;;;;5077675;28;1910;-65
2023/06/18 07:30:55;;;;;;;;;;;;;;;;;;5097220;28;1103;-65
2023/06/18 07:33:21;;;;;;;;;;;;;;;;;;5107762;28;1235;-66
2023/06/18 07:35:46;;;;;;;;;;;;;;;;;;5114393;28;845;-65
2023/06/18 07:38:11;;;;;;;;;;;;;;;;;;5115046;28;940;-65
2023/06/18 07:40:38;;;;;;;;;;;;;;;;;;5114932;28;943;-65
2023/06/18 07:43:03;;;;;;;;;;;;;;;;;;5114185;28;860;-65
2023/06/18 07:45:28;;;;;;;;;;;;;;;;;;5114728;28;983;-65
2023/06/18 07:47:54;;;;;;;;;;;;;;;;;;5115166;28;1963;-65
2023/06/18 07:50:19;;;;;;;;;;;;;;;;;;5114257;28;1983;-65
2023/06/18 07:52:45;;;;;;;;;;;;;;;;;;5114390;28;792;-65
2023/06/18 07:55:10;;;;;;;;;;;;;;;;;;5114545;28;1015;-65
2023/06/18 07:57:36;;;;;;;;;;;;;;;;;;5114233;28;1067;-65
2023/06/18 08:00:01;;;;;;;;;;;;;;;;;;5114396;28;1374;-65
2023/06/18 08:02:26;;;;;;;;;;;;;;;;;;5114485;28;1235;-65
2023/06/18 08:04:51;;;;;;;;;;;;;;;;;;5114672;28;932;-65
2023/06/18 08:07:17;;;;;;;;;;;;;;;;;;5114256;28;1963;-65
2023/06/18 08:09:42;;;;;;;;;;;;;;;;;;5114601;28;857;-65
2023/06/18 08:12:07;;;;;;;;;;;;;;;;;;5114307;28;992;-65
2023/06/18 08:14:33;;;;;;;;;;;;;;;;;;5114573;28;1011;-65
2023/06/18 08:16:58;;;;;;;;;;;;;;;;;;5114469;28;782;-65
2023/06/18 08:19:23;;;;;;;;;;;;;;;;;;5113386;28;774;-65
2023/06/18 08:21:49;;;;;;;;;;;;;;;;;;5114049;28;876;-65
2023/06/18 08:24:14;;;;;;;;;;;;;;;;;;5114362;28;869;-65
2023/06/18 08:26:40;;;;;;;;;;;;;;;;;;5113523;28;1953;-65
2023/06/18 08:29:05;;;;;;;;;;;;;;;;;;5113757;28;888;-66
2023/06/18 08:31:31;;;;;;;;;;;;;;;;;;5113794;28;913;-65
2023/06/18 08:33:56;;;;;;;;;;;;;;;;;;5114035;28;896;-65
2023/06/18 08:36:22;;;;;;;;;;;;;;;;;;5113804;28;976;-65
2023/06/18 08:38:47;;;;;;;;;;;;;;;;;;5112529;28;813;-65
2023/06/18 08:41:13;;;;;;;;;;;;;;;;;;5113693;28;861;-65
2023/06/18 08:43:38;;;;;;;;;;;;;;;;;;5113258;28;876;-65
2023/06/18 08:46:11;;;;;;;;;;;;;;;;;;5113242;28;895;-65
2023/06/18 08:48:41;;;;;;;;;;;;;;;;;;5112852;28;1968;-65
2023/06/18 08:51:08;;;;;;;;;;;;;;;;;;5113358;28;904;-65
2023/06/18 08:53:49;;;;;;;;;;;;;;;;;;5112875;28;940;-65
2023/06/18 08:56:17;;;;;;;;;;;;;;;;;;5112875;28;995;-66
2023/06/18 08:58:48;;;;;;;;;;;;;;;;;;5111561;28;1671;-66
2023/06/18 09:01:14;;;;;;;;;;;;;;;;;;5112905;28;832;-66
2023/06/18 09:03:40;;;;;;;;;;;;;;;;;;5112824;28;944;-66
2023/06/18 09:06:06;;;;;;;;;;;;;;;;;;5113054;28;940;-66
2023/06/18 09:08:32;;;;;;;;;;;;;;;;;;5112913;28;1917;-66
2023/06/18 09:10:57;;;;;;;;;;;;;;;;;;5111818;28;1281;-66
2023/06/18 09:13:22;;;;;;;;;;;;;;;;;;5112803;28;1250;-66
2023/06/18 09:15:48;;;;;;;;;;;;;;;;;;5111624;28;891;-66
2023/06/18 09:18:14;;;;;;;;;;;;;;;;;;5113180;28;836;-66
2023/06/18 09:20:40;;;;;;;;;;;;;;;;;;5113237;28;809;-66
2023/06/18 09:23:06;;;;;;;;;;;;;;;;;;5112789;28;1217;-66
2023/06/18 09:25:32;;;;;;;;;;;;;;;;;;5112893;28;900;-66
2023/06/18 09:27:58;;;;;;;;;;;;;;;;;;5111474;28;1906;-65
2023/06/18 09:30:23;;;;;;;;;;;;;;;;;;5111404;28;970;-66
2023/06/18 09:32:49;;;;;;;;;;;;;;;;;;5111475;28;887;-66
2023/06/18 09:35:15;;;;;;;;;;;;;;;;;;5112917;28;825;-66
2023/06/18 09:37:41;;;;;;;;;;;;;;;;;;5112986;28;829;-66
2023/06/18 09:40:15;;;;;;;;;;;;;;;;;;5113818;28;830;-66
2023/06/18 09:42:41;;;;;;;;;;;;;;;;;;5116759;28;914;-66
2023/06/18 09:45:07;;;;;;;;;;;;;;;;;;5116657;27;876;-66
2023/06/18 09:47:33;;;;;;;;;;;;;;;;;;5115497;28;1988;-66
2023/06/18 09:49:58;;;;;;;;;;;;;;;;;;5116505;28;837;-66
2023/06/18 09:52:24;;;;;;;;;;;;;;;;;;5116094;28;918;-66
2023/06/18 09:54:50;;;;;;;;;;;;;;;;;;5115188;28;864;-66
2023/06/18 09:57:15;;;;;;;;;;;;;;;;;;5116751;28;872;-65
2023/06/18 09:59:41;;;;;;;;;;;;;;;;;;5116175;28;1080;-66
2023/06/18 10:02:07;;;;;;;;;;;;;;;;;;5115966;28;896;-65
2023/06/18 10:04:33;;;;;;;;;;;;;;;;;;5116053;28;917;-66
2023/06/18 10:06:59;;;;;;;;;;;;;;;;;;5116126;28;1955;-66
2023/06/18 10:09:39;;;;;;;;;;;;;;;;;;5116570;27;912;-66
2023/06/18 10:12:05;;;;;;;;;;;;;;;;;;5115642;28;932;-65
2023/06/18 10:14:31;;;;;;;;;;;;;;;;;;5115777;28;1061;-65
2023/06/18 10:17:16;;;;;;;;;;;;;;;;;;5115982;27;999;-66
2023/06/18 10:19:44;;;;;;;;;;;;;;;;;;5115792;28;943;-66
2023/06/18 10:22:10;;;;;;;;;;;;;;;;;;5115211;28;872;-66
2023/06/18 10:24:38;;;;;;;;;;;;;;;;;;5115816;28;904;-66
2023/06/18 10:27:04;;;;;;;;;;;;;;;;;;5115840;28;1961;-66
2023/06/18 10:29:31;;;;;;;;;;;;;;;;;;5115369;28;841;-66
2023/06/18 10:31:57;;;;;;;;;;;;;;;;;;5113815;28;1252;-66
2023/06/18 10:34:24;;;;;;;;;;;;;;;;;;5115636;28;967;-66
2023/06/18 10:36:49;;;;;;;;;;;;;;;;;;5115077;28;837;-66
2023/06/18 10:39:15;;;;;;;;;;;;;;;;;;5115200;28;924;-65
2023/06/18 10:41:44;;;;;;;;;;;;;;;;;;5115140;28;833;-66
2023/06/18 10:44:09;;;;;;;;;;;;;;;;;;5114797;28;888;-65
2023/06/18 10:46:34;;;;;;;;;;;;;;;;;;5114727;28;1894;-66
2023/06/18 10:49:20;;;;;;;;;;;;;;;;;;5115136;28;1007;-66
2023/06/18 10:51:57;;;;;;;;;;;;;;;;;;5114343;28;936;-66
2023/06/18 10:54:33;;;;;;;;;;;;;;;;;;5114762;28;909;-66
2023/06/18 10:56:59;;;;;;;;;;;;;;;;;;5114891;28;897;-65
2023/06/18 10:59:41;;;;;;;;;;;;;;;;;;5114619;28;1089;-65
2023/06/18 11:02:06;;;;;;;;;;;;;;;;;;5115092;28;916;-66
2023/06/18 11:04:33;;;;;;;;;;;;;;;;;;5115145;28;853;-66
2023/06/18 11:07:12;;;;;;;;;;;;;;;;;;5114755;28;1905;-66
2023/06/18 11:09:47;;;;;;;;;;;;;;;;;;5113988;28;856;-65
2023/06/18 11:12:20;;;;;;;;;;;;;;;;;;5114717;28;920;-66
2023/06/18 11:15:03;;;;;;;;;;;;;;;;;;5115255;28;1111;-66
2023/06/18 11:17:29;;;;;;;;;;;;;;;;;;5115350;28;912;-66
2023/06/18 11:19:54;;;;;;;;;;;;;;;;;;5114473;28;856;-66
2023/06/18 11:22:20;;;;;;;;;;;;;;;;;;5115151;28;1018;-66
2023/06/18 11:24:46;;;;;;;;;;;;;;;;;;5113101;28;1187;-66
2023/06/18 11:27:11;;;;;;;;;;;;;;;;;;5110683;28;1907;-66
2023/06/18 11:29:37;;;;;;;;;;;;;;;;;;5112926;28;1163;-66
2023/06/18 11:32:05;;;;;;;;;;;;;;;;;;5114017;28;1167;-66
2023/06/18 11:34:31;;;;;;;;;;;;;;;;;;5114301;28;1074;-65
2023/06/18 11:36:56;;;;;;;;;;;;;;;;;;5113484;28;821;-65
2023/06/18 11:39:23;;;;;;;;;;;;;;;;;;5114287;28;1107;-65
2023/06/18 11:41:48;;;;;;;;;;;;;;;;;;5114348;28;845;-65
2023/06/18 11:44:13;;;;;;;;;;;;;;;;;;5114158;28;888;-66
2023/06/18 11:46:39;;;;;;;;;;;;;;;;;;5113948;28;1889;-66
2023/06/18 11:49:12;;;;;;;;;;;;;;;;;;5113722;28;912;-66
2023/06/18 11:51:37;;;;;;;;;;;;;;;;;;5114036;28;868;-65
2023/06/18 11:54:02;;;;;;;;;;;;;;;;;;5113135;28;936;-66
2023/06/18 11:56:28;;;;;;;;;;;;;;;;;;5113853;28;960;-66
2023/06/18 11:58:55;;;;;;;;;;;;;;;;;;5113359;28;1046;-66
2023/06/18 12:01:25;;;;;;;;;;;;;;;;;;5095834;28;1378;-66
2023/06/18 12:03:50;;;;;;;;;;;;;;;;;;5111169;28;1960;-66
2023/06/18 12:06:16;;;;;;;;;;;;;;;;;;5113147;28;1003;-66
2023/06/18 12:08:45;;;;;;;;;;;;;;;;;;5113282;28;1910;-66
2023/06/18 12:11:29;;;;;;;;;;;;;;;;;;5113329;28;803;-66
2023/06/18 12:13:58;;;;;;;;;;;;;;;;;;5113635;28;959;-66
2023/06/18 12:16:28;;;;;;;;;;;;;;;;;;5113034;28;885;-66
2023/06/18 12:18:58;;;;;;;;;;;;;;;;;;5113524;28;845;-66
2023/06/18 12:21:23;;;;;;;;;;;;;;;;;;5113121;28;1208;-66
2023/06/18 12:23:48;;;;;;;;;;;;;;;;;;5113300;28;834;-66
2023/06/18 12:26:14;;;;;;;;;;;;;;;;;;5113583;28;1193;-66
2023/06/18 12:28:39;;;;;;;;;;;;;;;;;;5112786;28;1961;-66
2023/06/18 12:31:08;;;;;;;;;;;;;;;;;;5111518;28;1152;-66
2023/06/18 12:33:37;;;;;;;;;;;;;;;;;;5113373;28;919;-66
2023/06/18 12:36:04;;;;;;;;;;;;;;;;;;5113024;28;892;-65
2023/06/18 12:38:38;;;;;;;;;;;;;;;;;;5113075;28;833;-66
2023/06/18 12:41:04;;;;;;;;;;;;;;;;;;5112870;28;1094;-66
2023/06/18 12:43:29;;;;;;;;;;;;;;;;;;5113097;28;845;-66
2023/06/18 12:45:56;;;;;;;;;;;;;;;;;;5114320;28;987;-66
2023/06/18 12:48:24;;;;;;;;;;;;;;;;;;5111843;28;1971;-66
2023/06/18 12:50:51;;;;;;;;;;;;;;;;;;5113138;28;851;-66
2023/06/18 12:53:24;;;;;;;;;;;;;;;;;;5111469;28;1179;-66
2023/06/18 12:55:50;;;;;;;;;;;;;;;;;;5111161;28;1031;-65
2023/06/18 12:58:21;;;;;;;;;;;;;;;;;;5112242;28;1083;-65
2023/06/18 13:00:47;;;;;;;;;;;;;;;;;;5113188;28;797;-65
2023/06/18 13:03:14;;;;;;;;;;;;;;;;;;5111099;28;903;-65
2023/06/18 13:05:40;;;;;;;;;;;;;;;;;;5112574;28;877;-65
2023/06/18 13:08:10;;;;;;;;;;;;;;;;;;5111115;28;1905;-65
2023/06/18 13:10:35;;;;;;;;;;;;;;;;;;5112422;28;936;-66
2023/06/18 13:13:01;;;;;;;;;;;;;;;;;;5112582;28;889;-65
2023/06/18 13:15:26;;;;;;;;;;;;;;;;;;5114634;28;987;-65
2023/06/18 13:17:52;;;;;;;;;;;;;;;;;;5117663;28;857;-65
2023/06/18 13:20:17;;;;;;;;;;;;;;;;;;5116920;28;892;-65
2023/06/18 13:22:42;;;;;;;;;;;;;;;;;;5116141;28;1234;-66
2023/06/18 13:25:09;;;;;;;;;;;;;;;;;;5116626;28;1131;-67
2023/06/18 13:27:34;;;;;;;;;;;;;;;;;;5116210;28;1964;-66
2023/06/18 13:29:59;;;;;;;;;;;;;;;;;;5116401;28;817;-67
2023/06/18 13:32:25;;;;;;;;;;;;;;;;;;5116051;28;939;-66
2023/06/18 13:34:51;;;;;;;;;;;;;;;;;;5116805;28;901;-66
2023/06/18 13:37:17;;;;;;;;;;;;;;;;;;5116758;27;840;-66
2023/06/18 13:39:42;;;;;;;;;;;;;;;;;;5115753;28;971;-66
2023/06/18 13:42:08;;;;;;;;;;;;;;;;;;5116064;28;1007;-66
2023/06/18 13:44:33;;;;;;;;;;;;;;;;;;5115967;28;944;-66
2023/06/18 13:46:59;;;;;;;;;;;;;;;;;;5116846;28;1949;-66
2023/06/18 13:49:24;;;;;;;;;;;;;;;;;;5116050;28;987;-66
2023/06/18 13:51:49;;;;;;;;;;;;;;;;;;5116231;28;885;-66
2023/06/18 13:54:15;;;;;;;;;;;;;;;;;;5114923;28;926;-66
2023/06/18 13:56:40;;;;;;;;;;;;;;;;;;5116552;28;1148;-66
2023/06/18 13:59:06;;;;;;;;;;;;;;;;;;5116031;28;1063;-66
2023/06/18 14:01:31;;;;;;;;;;;;;;;;;;5115660;28;924;-66
2023/06/18 14:03:56;;;;;;;;;;;;;;;;;;5115938;28;881;-65
2023/06/18 14:06:22;;;;;;;;;;;;;;;;;;5115635;28;940;-66
2023/06/18 14:08:47;;;;;;;;;;;;;;;;;;5115827;28;1957;-66
2023/06/18 14:11:13;;;;;;;;;;;;;;;;;;5115536;28;892;-65
2023/06/18 14:13:38;;;;;;;;;;;;;;;;;;5115668;28;877;-66
2023/06/18 14:16:06;;;;;;;;;;;;;;;;;;5116510;28;893;-66
2023/06/18 14:18:34;;;;;;;;;;;;;;;;;;5118785;28;1159;-66
2023/06/18 14:20:59;;;;;;;;;;;;;;;;;;5118877;28;901;-66
2023/06/18 14:23:24;;;;;;;;;;;;;;;;;;5099576;28;1446;-65
2023/06/18 14:25:50;;;;;;;;;;;;;;;;;;5099913;28;1306;-66
2023/06/18 14:28:16;;;;;;;;;;;;;;;;;;5115741;28;1925;-66
2023/06/18 14:30:42;;;;;;;;;;;;;;;;;;5119678;28;1281;-66
2023/06/18 14:33:07;;;;;;;;;;;;;;;;;;5118877;28;960;-66
2023/06/18 14:35:32;;;;;;;;;;;;;;;;;;5118122;28;1384;-66
2023/06/18 14:37:58;;;;;;;;;;;;;;;;;;5117762;28;898;-66
2023/06/18 14:40:23;;;;;;;;;;;;;;;;;;5116679;28;841;-66
2023/06/18 14:42:49;;;;;;;;;;;;;;;;;;5116831;28;1254;-61
2023/06/18 14:45:15;;;;;;;;;;;;;;;;;;5117041;28;869;-65
2023/06/18 14:47:40;;;;;;;;;;;;;;;;;;5118402;27;1941;-65
2023/06/18 14:50:07;;;;;;;;;;;;;;;;;;5116695;28;884;-66
2023/06/18 14:52:32;;;;;;;;;;;;;;;;;;5117271;28;852;-66
2023/06/18 14:54:57;;;;;;;;;;;;;;;;;;5117970;28;881;-65
2023/06/18 14:57:23;;;;;;;;;;;;;;;;;;5116469;28;908;-65
2023/06/18 14:59:49;;;;;;;;;;;;;;;;;;5116341;28;1237;-65
2023/06/18 15:02:14;;;;;;;;;;;;;;;;;;5118644;28;865;-65
2023/06/18 15:04:39;;;;;;;;;;;;;;;;;;5116462;28;800;-65
2023/06/18 15:07:05;;;;;;;;;;;;;;;;;;5115359;28;1963;-65
2023/06/18 15:09:30;;;;;;;;;;;;;;;;;;5116312;28;817;-65
2023/06/18 15:11:56;;;;;;;;;;;;;;;;;;5116107;28;872;-65
2023/06/18 15:14:21;;;;;;;;;;;;;;;;;;5116452;28;628;-65
2023/06/18 15:16:46;;;;;;;;;;;;;;;;;;5116224;28;845;-65
2023/06/18 15:19:13;;;;;;;;;;;;;;;;;;5098461;28;1817;-65
2023/06/18 15:21:38;;;;;;;;;;;;;;;;;;5096261;28;1151;-65
2023/06/18 15:24:04;;;;;;;;;;;;;;;;;;5097241;28;1190;-65
2023/06/18 15:26:30;;;;;;;;;;;;;;;;;;5111952;28;1242;-65
2023/06/18 15:28:56;;;;;;;;;;;;;;;;;;5115065;28;1905;-65
2023/06/18 15:31:21;;;;;;;;;;;;;;;;;;5116620;28;999;-65
2023/06/18 15:33:46;;;;;;;;;;;;;;;;;;5114120;28;904;-65
2023/06/18 15:36:12;;;;;;;;;;;;;;;;;;5114505;28;1198;-65
2023/06/18 15:38:37;;;;;;;;;;;;;;;;;;5114093;28;904;-65
2023/06/18 15:41:03;;;;;;;;;;;;;;;;;;5110393;28;1170;-65
2023/06/18 15:43:28;;;;;;;;;;;;;;;;;;5103594;28;1139;-67
2023/06/18 15:45:54;;;;;;;;;;;;;;;;;;5114052;28;781;-67
2023/06/18 15:48:19;;;;;;;;;;;;;;;;;;5112075;28;2014;-66
2023/06/18 15:50:46;;;;;;;;;;;;;;;;;;5113579;28;876;-66
2023/06/18 15:53:12;;;;;;;;;;;;;;;;;;5113832;28;884;-66
2023/06/18 15:55:37;;;;;;;;;;;;;;;;;;5113314;28;911;-67
2023/06/18 15:58:02;;;;;;;;;;;;;;;;;;5113099;28;1130;-67
2023/06/18 16:00:27;;;;;;;;;;;;;;;;;;5112952;28;865;-67
2023/06/18 16:02:53;;;;;;;;;;;;;;;;;;5113718;28;896;-66
2023/06/18 16:05:18;;;;;;;;;;;;;;;;;;5113619;28;774;-66
2023/06/18 16:07:45;;;;;;;;;;;;;;;;;;5113292;28;1921;-67
2023/06/18 16:10:10;;;;;;;;;;;;;;;;;;5113506;28;959;-66
2023/06/18 16:12:35;;;;;;;;;;;;;;;;;;5112839;28;983;-66
2023/06/18 16:15:01;;;;;;;;;;;;;;;;;;5113488;28;857;-66
2023/06/18 16:17:27;;;;;;;;;;;;;;;;;;5112198;28;672;-66
2023/06/18 16:19:52;;;;;;;;;;;;;;;;;;5111631;28;1257;-66
2023/06/18 16:22:18;;;;;;;;;;;;;;;;;;5113413;28;845;-66
2023/06/18 16:24:43;;;;;;;;;;;;;;;;;;5113197;28;892;-67
2023/06/18 16:27:08;;;;;;;;;;;;;;;;;;5113406;28;1874;-66
2023/06/18 16:29:34;;;;;;;;;;;;;;;;;;5113482;28;825;-66
2023/06/18 16:31:59;;;;;;;;;;;;;;;;;;5112237;28;810;-66
2023/06/18 16:34:25;;;;;;;;;;;;;;;;;;5113527;28;880;-66
2023/06/18 16:36:50;;;;;;;;;;;;;;;;;;5111553;28;1692;-67
2023/06/18 16:39:16;;;;;;;;;;;;;;;;;;5113616;28;860;-66
2023/06/18 16:41:41;;;;;;;;;;;;;;;;;;5112895;28;904;-66
2023/06/18 16:44:06;;;;;;;;;;;;;;;;;;5113334;28;852;-67
2023/06/18 16:46:31;;;;;;;;;;;;;;;;;;5113248;28;837;-66
2023/06/18 16:48:57;;;;;;;;;;;;;;;;;;5113355;28;1911;-66
2023/06/18 16:51:22;;;;;;;;;;;;;;;;;;5112005;28;1192;-66
2023/06/18 16:53:49;;;;;;;;;;;;;;;;;;5112608;28;956;-67
2023/06/18 16:56:15;;;;;;;;;;;;;;;;;;5112451;28;917;-67
2023/06/18 16:58:41;;;;;;;;;;;;;;;;;;5111958;28;1098;-66
2023/06/18 17:01:06;;;;;;;;;;;;;;;;;;5112685;28;840;-66
2023/06/18 17:03:31;;;;;;;;;;;;;;;;;;5112473;28;1002;-66
2023/06/18 17:05:58;;;;;;;;;;;;;;;;;;5113015;28;941;-66
2023/06/18 17:08:23;;;;;;;;;;;;;;;;;;5113298;28;1906;-66
2023/06/18 17:10:49;;;;;;;;;;;;;;;;;;5110905;28;901;-66